createdAt,value
2023-02-06T00:01:23.653Z,20.80
2023-02-06T00:04:32.433Z,19.60
2023-02-06T00:07:40.892Z,20.70
2023-02-06T00:10:49.803Z,20.10
2023-02-06T00:13:57.796Z,17.80
2023-02-06T00:17:06.822Z,21.10
2023-02-06T00:20:15.694Z,21.10
2023-02-06T00:23:23.774Z,17.60
2023-02-06T00:26:32.650Z,21.90
2023-02-06T00:29:41.157Z,20.30
2023-02-06T00:32:50.069Z,23.20
2023-02-06T00:35:58.371Z,25.10
2023-02-06T00:39:06.756Z,23.70
2023-02-06T00:42:15.200Z,24.20
2023-02-06T00:45:23.745Z,25.60
2023-02-06T00:48:32.236Z,24.10
2023-02-06T00:51:40.564Z,22.90
2023-02-06T00:54:48.559Z,24.30
2023-02-06T00:57:57.002Z,18.20
2023-02-06T01:01:05.466Z,22.00
2023-02-06T01:04:13.418Z,20.70
2023-02-06T01:07:22.314Z,22.60
2023-02-06T01:10:30.254Z,23.10
2023-02-06T01:13:39.072Z,24.70
2023-02-06T01:16:48.006Z,22.00
2023-02-06T01:19:56.522Z,22.80
2023-02-06T01:23:04.963Z,26.00
2023-02-06T01:26:13.684Z,22.90
2023-02-06T01:29:21.691Z,23.50
2023-02-06T01:32:30.739Z,24.20
2023-02-06T01:35:39.393Z,23.90
2023-02-06T01:38:47.824Z,25.10
2023-02-06T01:41:56.272Z,27.50
2023-02-06T01:45:04.922Z,26.80
2023-02-06T01:48:13.325Z,30.20
2023-02-06T01:51:21.775Z,28.50
2023-02-06T01:54:30.105Z,32.40
2023-02-06T01:57:33.102Z,31.50
2023-02-06T02:00:40.890Z,34.70
2023-02-06T02:03:49.377Z,28.90
2023-02-06T02:06:57.868Z,32.00
2023-02-06T02:10:05.711Z,35.00
2023-02-06T02:13:13.699Z,33.00
2023-02-06T02:16:22.182Z,34.70
2023-02-06T02:19:29.910Z,38.40
2023-02-06T02:22:38.296Z,36.90
2023-02-06T02:25:46.517Z,43.50
2023-02-06T02:28:54.707Z,47.80
2023-02-06T02:32:03.163Z,47.60
2023-02-06T02:35:11.198Z,56.20
2023-02-06T02:38:19.822Z,52.70
2023-02-06T02:41:28.359Z,48.20
2023-02-06T02:44:36.035Z,64.10
2023-02-06T02:47:44.488Z,59.20
2023-02-06T02:50:53.267Z,60.30
2023-02-06T02:54:01.088Z,62.90
2023-02-06T02:57:09.698Z,58.00
2023-02-06T03:00:17.898Z,57.10
2023-02-06T03:03:25.935Z,46.30
2023-02-06T03:06:34.173Z,47.80
2023-02-06T03:09:44.243Z,48.70
2023-02-06T03:12:42.877Z,43.70
2023-02-06T03:15:50.937Z,44.80
2023-02-06T03:18:59.302Z,45.80
2023-02-06T03:22:07.242Z,49.80
2023-02-06T03:25:15.424Z,54.40
2023-02-06T03:28:23.873Z,55.20
2023-02-06T03:31:31.985Z,54.80
2023-02-06T03:34:40.016Z,64.50
2023-02-06T03:37:48.545Z,59.10
2023-02-06T03:40:56.149Z,57.80
2023-02-06T03:44:04.693Z,51.90
2023-02-06T03:47:12.981Z,48.80
2023-02-06T03:50:20.795Z,49.30
2023-02-06T03:53:29.129Z,49.80
2023-02-06T03:56:37.277Z,52.70
2023-02-06T03:59:45.540Z,50.60
2023-02-06T04:02:53.938Z,49.30
2023-02-06T04:06:01.574Z,41.90
2023-02-06T04:09:10.252Z,51.10
2023-02-06T04:12:18.670Z,51.90
2023-02-06T04:15:26.363Z,50.00
2023-02-06T04:18:34.864Z,53.10
2023-02-06T04:21:43.525Z,46.60
2023-02-06T04:24:51.134Z,44.30
2023-02-06T04:27:59.184Z,40.30
2023-02-06T04:31:07.214Z,44.30
2023-02-06T04:34:15.254Z,44.30
2023-02-06T04:37:23.907Z,43.80
2023-02-06T04:40:31.957Z,45.70
2023-02-06T04:43:39.930Z,43.10
2023-02-06T04:46:48.001Z,41.50
2023-02-06T04:49:56.107Z,39.70
2023-02-06T04:53:04.267Z,44.50
2023-02-06T04:56:12.358Z,43.80
2023-02-06T04:59:20.427Z,49.10
2023-02-06T05:02:28.435Z,42.90
2023-02-06T05:05:36.802Z,41.80
2023-02-06T05:08:45.355Z,43.40
2023-02-06T05:11:53.461Z,35.40
2023-02-06T05:15:01.422Z,41.10
2023-02-06T05:18:09.529Z,38.40
2023-02-06T05:21:17.545Z,40.10
2023-02-06T05:24:25.500Z,40.80
2023-02-06T05:27:34.021Z,35.60
2023-02-06T05:30:41.625Z,33.20
2023-02-06T05:33:52.230Z,36.30
2023-02-06T05:37:00.725Z,38.80
2023-02-06T05:40:08.398Z,35.40
2023-02-06T05:43:16.790Z,37.70
2023-02-06T05:46:25.402Z,40.40
2023-02-06T05:49:32.900Z,41.80
2023-02-06T05:52:41.663Z,39.00
2023-02-06T05:55:50.220Z,45.20
2023-02-06T05:58:58.083Z,39.50
2023-02-06T06:02:07.214Z,37.90
2023-02-06T06:05:15.326Z,39.70
2023-02-06T06:08:23.315Z,44.80
2023-02-06T06:11:31.844Z,43.10
2023-02-06T06:14:39.911Z,40.70
2023-02-06T06:17:48.084Z,42.80
2023-02-06T06:20:56.350Z,38.70
2023-02-06T06:24:04.591Z,42.80
2023-02-06T06:27:12.828Z,46.90
2023-02-06T06:30:21.089Z,44.30
2023-02-06T06:33:29.414Z,43.70
2023-02-06T06:36:37.319Z,39.90
2023-02-06T06:39:45.400Z,45.00
2023-02-06T06:42:53.621Z,43.40
2023-02-06T06:46:01.663Z,40.80
2023-02-06T06:49:09.849Z,42.20
2023-02-06T06:52:24.971Z,46.00
2023-02-06T06:55:22.621Z,43.40
2023-02-06T06:58:30.752Z,44.40
2023-02-06T07:01:39.106Z,39.80
2023-02-06T07:04:46.846Z,39.20
2023-02-06T07:07:55.294Z,49.50
2023-02-06T07:11:03.612Z,40.70
2023-02-06T07:14:11.275Z,43.20
2023-02-06T07:17:19.775Z,48.50
2023-02-06T07:20:28.172Z,47.60
2023-02-06T07:23:35.805Z,44.80
2023-02-06T07:26:44.289Z,46.90
2023-02-06T07:29:52.637Z,50.00
2023-02-06T07:33:00.295Z,41.40
2023-02-06T07:36:08.606Z,43.10
2023-02-06T07:39:16.852Z,37.60
2023-02-06T07:42:24.470Z,39.80
2023-02-06T07:45:32.857Z,43.90
2023-02-06T07:48:41.197Z,41.80
2023-02-06T07:51:49.048Z,39.80
2023-02-06T07:54:57.224Z,44.30
2023-02-06T07:58:05.559Z,44.40
2023-02-06T08:01:13.730Z,39.10
2023-02-06T08:04:22.008Z,39.90
2023-02-06T08:07:29.900Z,36.70
2023-02-06T08:10:38.230Z,37.10
2023-02-06T08:13:46.416Z,34.40
2023-02-06T08:16:54.421Z,33.80
2023-02-06T08:20:02.363Z,33.70
2023-02-06T08:23:10.454Z,34.60
2023-02-06T08:26:18.478Z,31.60
2023-02-06T08:29:27.003Z,33.40
2023-02-06T08:32:34.684Z,35.60
2023-02-06T08:35:43.101Z,36.10
2023-02-06T08:38:51.389Z,30.20
2023-02-06T08:41:59.122Z,36.70
2023-02-06T08:45:07.290Z,31.40
2023-02-06T08:48:15.356Z,32.50
2023-02-06T08:51:23.394Z,31.20
2023-02-06T08:54:33.863Z,34.10
2023-02-06T08:57:32.366Z,33.10
2023-02-06T09:00:40.390Z,29.80
2023-02-06T09:03:48.588Z,37.20
2023-02-06T09:06:56.875Z,32.10
2023-02-06T09:10:04.836Z,30.70
2023-02-06T09:13:12.630Z,28.80
2023-02-06T09:16:20.959Z,30.60
2023-02-06T09:19:28.869Z,28.10
2023-02-06T09:22:36.893Z,25.50
2023-02-06T09:25:45.500Z,24.40
2023-02-06T09:28:53.565Z,27.20
2023-02-06T09:32:01.704Z,24.10
2023-02-06T09:35:09.885Z,21.60
2023-02-06T09:38:17.483Z,20.40
2023-02-06T09:41:25.864Z,24.20
2023-02-06T09:44:34.258Z,22.10
2023-02-06T09:47:41.837Z,21.40
2023-02-06T09:50:50.142Z,24.00
2023-02-06T09:53:58.545Z,27.60
2023-02-06T09:57:06.311Z,22.10
2023-02-06T10:00:14.647Z,27.50
2023-02-06T10:03:22.765Z,23.30
2023-02-06T10:06:30.565Z,20.80
2023-02-06T10:09:38.866Z,24.70
2023-02-06T10:12:46.869Z,18.80
2023-02-06T10:15:54.876Z,19.20
2023-02-06T10:19:03.620Z,15.60
2023-02-06T10:22:11.412Z,14.20
2023-02-06T10:25:19.279Z,13.60
2023-02-06T10:28:27.648Z,7.70
2023-02-06T10:31:36.130Z,14.80
2023-02-06T10:34:44.136Z,11.60
2023-02-06T10:37:52.220Z,14.90
2023-02-06T10:41:00.478Z,17.70
2023-02-06T10:44:08.477Z,18.40
2023-02-06T10:47:16.528Z,19.20
2023-02-06T10:50:24.838Z,15.80
2023-02-06T10:53:33.023Z,16.00
2023-02-06T10:56:40.868Z,16.70
2023-02-06T10:59:49.290Z,13.60
2023-02-06T11:03:07.190Z,16.50
2023-02-06T11:06:02.425Z,14.10
2023-02-06T11:09:10.963Z,16.00
2023-02-06T11:12:18.549Z,13.20
2023-02-06T11:15:26.931Z,11.70
2023-02-06T11:18:34.984Z,10.50
2023-02-06T11:21:42.981Z,10.70
2023-02-06T11:24:51.236Z,12.80
2023-02-06T11:27:59.294Z,11.10
2023-02-06T11:31:07.615Z,12.00
2023-02-06T11:34:15.546Z,12.10
2023-02-06T11:37:24.053Z,12.70
2023-02-06T11:40:31.913Z,11.00
2023-02-06T11:43:39.855Z,11.70
2023-02-06T11:46:47.835Z,12.80
2023-02-06T11:49:55.935Z,8.00
2023-02-06T11:53:03.976Z,9.30
2023-02-06T11:56:11.896Z,8.80
2023-02-06T11:59:19.631Z,6.30
2023-02-06T12:02:28.226Z,5.80
2023-02-06T12:05:36.777Z,7.30
2023-02-06T12:08:44.469Z,8.70
2023-02-06T12:11:52.708Z,10.00
2023-02-06T12:15:04.874Z,7.70
2023-02-06T12:18:05.732Z,7.80
2023-02-06T12:21:14.261Z,8.00
2023-02-06T12:24:22.196Z,10.50
2023-02-06T12:27:30.273Z,10.50
2023-02-06T12:30:38.974Z,4.90
2023-02-06T12:33:47.000Z,6.60
2023-02-06T12:36:55.023Z,5.70
2023-02-06T12:40:02.867Z,5.20
2023-02-06T12:43:11.271Z,5.70
2023-02-06T12:46:19.449Z,5.20
2023-02-06T12:49:27.408Z,6.80
2023-02-06T12:52:35.680Z,6.30
2023-02-06T12:55:43.365Z,5.00
2023-02-06T12:58:51.852Z,5.10
2023-02-06T13:02:00.276Z,5.40
2023-02-06T13:05:08.069Z,5.50
2023-02-06T13:08:16.416Z,6.10
2023-02-06T13:11:24.128Z,5.00
2023-02-06T13:14:32.716Z,4.70
2023-02-06T13:17:41.197Z,5.60
2023-02-06T13:20:48.808Z,4.40
2023-02-06T13:23:57.298Z,5.80
2023-02-06T13:27:05.639Z,5.60
2023-02-06T13:30:13.268Z,4.10
2023-02-06T13:33:21.805Z,6.00
2023-02-06T13:36:29.468Z,5.30
2023-02-06T13:39:37.482Z,5.10
2023-02-06T13:42:45.378Z,5.70
2023-02-06T13:45:53.273Z,9.90
2023-02-06T13:49:01.155Z,4.90
2023-02-06T13:52:09.030Z,3.60
2023-02-06T13:55:17.555Z,3.90
2023-02-06T13:58:25.472Z,3.90
2023-02-06T14:01:33.604Z,5.40
2023-02-06T14:04:42.034Z,4.30
2023-02-06T14:07:50.055Z,4.80
2023-02-06T14:10:58.345Z,4.80
2023-02-06T14:14:06.943Z,4.90
2023-02-06T14:17:14.626Z,6.30
2023-02-06T14:20:23.014Z,4.60
2023-02-06T14:23:31.542Z,4.70
2023-02-06T14:26:39.413Z,5.30
2023-02-06T14:29:47.286Z,4.50
2023-02-06T14:32:55.692Z,5.80
2023-02-06T14:36:03.802Z,3.60
2023-02-06T14:39:11.804Z,5.30
2023-02-06T14:42:19.787Z,5.60
2023-02-06T14:45:27.525Z,6.10
2023-02-06T14:48:35.616Z,5.40
2023-02-06T14:51:43.687Z,4.00
2023-02-06T14:54:51.774Z,5.10
2023-02-06T14:57:59.596Z,3.60
2023-02-06T15:01:07.505Z,6.30
2023-02-06T15:04:16.073Z,4.70
2023-02-06T15:07:23.678Z,5.30
2023-02-06T15:10:32.129Z,6.30
2023-02-06T15:13:40.033Z,4.40
2023-02-06T15:16:48.159Z,4.10
2023-02-06T15:19:56.394Z,5.10
2023-02-06T15:23:16.520Z,3.20
2023-02-06T15:26:09.574Z,3.60
2023-02-06T15:29:18.167Z,5.70
2023-02-06T15:32:25.780Z,6.10
2023-02-06T15:35:34.247Z,5.90
2023-02-06T15:38:42.704Z,5.20
2023-02-06T15:41:50.225Z,12.40
2023-02-06T15:44:58.956Z,12.80
2023-02-06T15:48:07.736Z,5.00
2023-02-06T15:51:15.399Z,9.10
2023-02-06T15:54:23.627Z,11.70
2023-02-06T15:57:31.642Z,13.40
2023-02-06T16:00:40.020Z,10.90
2023-02-06T16:03:48.563Z,12.90
2023-02-06T16:06:56.740Z,17.00
2023-02-06T16:10:04.952Z,7.70
2023-02-06T16:13:13.339Z,7.30
2023-02-06T16:16:21.265Z,7.50
2023-02-06T16:19:29.453Z,10.40
2023-02-06T16:22:37.598Z,8.10
2023-02-06T16:25:46.016Z,14.20
2023-02-06T16:28:53.842Z,9.40
2023-02-06T16:32:01.876Z,10.00
2023-02-06T16:35:10.789Z,7.20
2023-02-06T16:38:19.204Z,5.90
2023-02-06T16:41:27.315Z,5.00
2023-02-06T16:44:44.320Z,4.50
2023-02-06T16:47:41.290Z,5.20
2023-02-06T16:50:49.598Z,5.40
2023-02-06T16:53:58.073Z,5.70
2023-02-06T16:57:05.781Z,4.60
2023-02-06T17:00:14.110Z,5.20
2023-02-06T17:03:22.821Z,5.90
2023-02-06T17:06:30.479Z,7.00
2023-02-06T17:09:38.924Z,9.50
2023-02-06T17:12:47.468Z,8.50
2023-02-06T17:15:55.154Z,5.10
2023-02-06T17:19:03.846Z,4.00
2023-02-06T17:22:12.270Z,3.70
2023-02-06T17:25:20.228Z,7.30
2023-02-06T17:28:28.211Z,9.20
2023-02-06T17:31:36.403Z,6.50
2023-02-06T17:34:44.585Z,5.90
2023-02-06T17:37:54.891Z,3.80
2023-02-06T17:41:03.212Z,4.50
2023-02-06T17:44:11.540Z,5.30
2023-02-06T17:47:19.075Z,5.50
2023-02-06T17:50:27.304Z,5.50
2023-02-06T17:53:35.675Z,5.60
2023-02-06T17:56:43.366Z,24.30
2023-02-06T17:59:52.402Z,11.10
2023-02-06T18:03:01.198Z,48.70
2023-02-06T18:06:08.938Z,10.80
2023-02-06T18:09:17.600Z,4.60
2023-02-06T18:12:26.305Z,9.40
2023-02-06T18:15:34.052Z,9.70
2023-02-06T18:18:42.465Z,9.20
2023-02-06T18:21:49.991Z,14.60
2023-02-06T18:24:58.042Z,15.10
2023-02-06T18:28:06.109Z,30.70
2023-02-06T18:31:14.272Z,16.80
2023-02-06T18:34:22.389Z,13.30
2023-02-06T18:37:31.098Z,4.50
2023-02-06T18:40:39.633Z,16.70
2023-02-06T18:43:47.770Z,5.10
2023-02-06T18:46:56.327Z,4.50
2023-02-06T18:50:04.650Z,5.70
2023-02-06T18:53:12.880Z,4.50
2023-02-06T18:56:21.230Z,7.50
2023-02-06T18:59:29.310Z,10.00
2023-02-06T19:02:37.417Z,6.80
2023-02-06T19:05:45.744Z,5.90
2023-02-06T19:08:55.608Z,8.90
2023-02-06T19:12:04.090Z,11.90
2023-02-06T19:15:12.739Z,18.80
2023-02-06T19:18:35.975Z,14.80
2023-02-06T19:21:27.274Z,27.30
2023-02-06T19:24:35.572Z,23.70
2023-02-06T19:27:44.154Z,32.60
2023-02-06T19:30:51.893Z,10.50
2023-02-06T19:34:00.538Z,11.40
2023-02-06T19:37:09.323Z,8.00
2023-02-06T19:40:17.370Z,13.00
2023-02-06T19:43:26.276Z,9.10
2023-02-06T19:46:34.806Z,10.60
2023-02-06T19:49:42.585Z,6.70
2023-02-06T19:52:51.123Z,8.30
2023-02-06T19:55:59.165Z,57.80
2023-02-06T19:59:07.140Z,10.10
2023-02-06T20:02:15.650Z,10.60
2023-02-06T20:05:23.556Z,11.10
2023-02-06T20:08:31.746Z,8.20
2023-02-06T20:11:40.379Z,10.20
2023-02-06T20:14:48.149Z,13.10
2023-02-06T20:17:56.278Z,16.20
2023-02-06T20:21:04.520Z,23.20
2023-02-06T20:24:12.609Z,20.40
2023-02-06T20:27:20.652Z,21.10
2023-02-06T20:30:28.693Z,26.50
2023-02-06T20:33:37.269Z,21.70
2023-02-06T20:36:45.307Z,22.00
2023-02-06T20:39:53.528Z,30.60
2023-02-06T20:43:01.352Z,30.10
2023-02-06T20:46:09.153Z,45.40
2023-02-06T20:49:17.383Z,31.40
2023-02-06T20:52:26.431Z,47.50
2023-02-06T20:55:34.953Z,27.10
2023-02-06T20:58:43.469Z,29.80
2023-02-06T21:01:51.563Z,32.80
2023-02-06T21:04:59.267Z,33.00
2023-02-06T21:08:07.785Z,27.70
2023-02-06T21:11:15.946Z,26.10
2023-02-06T21:14:23.801Z,29.30
2023-02-06T21:17:32.476Z,27.60
2023-02-06T21:20:40.249Z,23.90
2023-02-06T21:23:48.828Z,21.50
2023-02-06T21:26:57.367Z,17.40
2023-02-06T21:30:05.498Z,19.30
2023-02-06T21:33:13.361Z,17.80
2023-02-06T21:36:21.282Z,19.90
2023-02-06T21:39:29.852Z,19.20
2023-02-06T21:42:38.536Z,19.30
2023-02-06T21:45:46.999Z,19.30
2023-02-06T21:48:55.214Z,18.60
2023-02-06T21:52:03.968Z,18.80
2023-02-06T21:55:11.948Z,16.40
2023-02-06T21:58:20.798Z,18.70
2023-02-06T22:01:29.423Z,16.90
2023-02-06T22:04:37.035Z,19.20
2023-02-06T22:07:45.509Z,18.50
2023-02-06T22:10:53.966Z,19.40
2023-02-06T22:14:01.661Z,17.90
2023-02-06T22:17:10.345Z,16.50
2023-02-06T22:20:18.614Z,17.70
2023-02-06T22:23:26.688Z,16.40
2023-02-06T22:26:35.216Z,15.20
2023-02-06T22:29:43.306Z,16.10
2023-02-06T22:32:51.296Z,14.80
2023-02-06T22:36:00.050Z,14.80
2023-02-06T22:39:08.426Z,14.70
2023-02-06T22:42:16.832Z,14.50
2023-02-06T22:45:25.445Z,16.10
2023-02-06T22:48:33.427Z,16.60
2023-02-06T22:51:41.858Z,15.40
2023-02-06T22:54:49.487Z,15.10
2023-02-06T22:57:57.984Z,15.40
2023-02-06T23:01:06.126Z,17.30
2023-02-06T23:04:13.845Z,15.70
2023-02-06T23:07:22.511Z,15.40
2023-02-06T23:10:30.575Z,15.20
2023-02-06T23:13:38.491Z,16.20
2023-02-06T23:16:47.263Z,16.80
2023-02-06T23:19:55.046Z,19.60
2023-02-06T23:23:03.505Z,20.10
2023-02-06T23:26:12.099Z,21.30
2023-02-06T23:29:19.742Z,20.80
2023-02-06T23:32:28.146Z,19.70
2023-02-06T23:35:37.056Z,20.40
2023-02-06T23:38:44.757Z,19.00
2023-02-06T23:41:53.240Z,19.10
2023-02-06T23:45:01.491Z,19.60
2023-02-06T23:48:09.604Z,28.90
2023-02-06T23:51:17.835Z,26.80
2023-02-06T23:54:25.932Z,28.70
2023-02-06T23:57:34.428Z,24.90
